createdAt,value
2023-06-26T00:00:38.860Z,135.000
2023-06-26T00:01:38.963Z,135.000
2023-06-26T00:02:38.707Z,90.000
2023-06-26T00:03:39.353Z,45.000
2023-06-26T00:04:39.171Z,90.000
2023-06-26T00:05:38.662Z,90.000
2023-06-26T00:06:39.064Z,90.000
2023-06-26T00:07:38.733Z,135.000
2023-06-26T00:08:39.158Z,135.000
2023-06-26T00:09:38.553Z,135.000
2023-06-26T00:11:38.752Z,90.000
2023-06-26T00:12:39.512Z,135.000
2023-06-26T00:13:38.941Z,135.000
2023-06-26T00:16:39.124Z,180.000
2023-06-26T00:17:38.958Z,135.000
2023-06-26T00:18:38.757Z,135.000
2023-06-26T00:19:39.190Z,135.000
2023-06-26T00:20:39.204Z,90.000
2023-06-26T00:23:42.347Z,90.000
2023-06-26T00:25:39.374Z,135.000
2023-06-26T00:26:38.814Z,45.000
2023-06-26T00:27:39.232Z,135.000
2023-06-26T00:28:38.710Z,135.000
2023-06-26T00:29:39.116Z,135.000
2023-06-26T00:30:39.160Z,90.000
2023-06-26T00:31:39.448Z,90.000
2023-06-26T00:32:40.407Z,90.000
2023-06-26T00:33:38.231Z,135.000
2023-06-26T00:34:38.635Z,180.000
2023-06-26T00:35:39.147Z,45.000
2023-06-26T00:36:38.659Z,90.000
2023-06-26T00:37:39.071Z,45.000
2023-06-26T00:38:38.514Z,90.000
2023-06-26T00:39:39.032Z,337.500
2023-06-26T00:40:39.067Z,90.000
2023-06-26T00:42:38.939Z,45.000
2023-06-26T00:43:38.312Z,135.000
2023-06-26T00:44:38.704Z,135.000
2023-06-26T00:45:46.386Z,135.000
2023-06-26T00:47:39.386Z,90.000
2023-06-26T00:48:39.139Z,90.000
2023-06-26T00:49:39.111Z,135.000
2023-06-26T00:52:38.368Z,135.000
2023-06-26T00:53:38.805Z,135.000
2023-06-26T00:54:38.353Z,90.000
2023-06-26T00:55:38.807Z,90.000
2023-06-26T00:56:38.245Z,90.000
2023-06-26T00:57:38.687Z,135.000
2023-06-26T00:58:39.175Z,90.000
2023-06-26T00:59:38.551Z,135.000
2023-06-26T01:00:40.068Z,135.000
2023-06-26T01:01:38.907Z,90.000
2023-06-26T01:03:38.438Z,135.000
2023-06-26T01:04:39.134Z,90.000
2023-06-26T01:05:38.426Z,45.000
2023-06-26T01:06:39.498Z,135.000
2023-06-26T01:07:39.054Z,90.000
2023-06-26T01:08:38.601Z,135.000
2023-06-26T01:09:39.086Z,90.000
2023-06-26T01:10:39.022Z,135.000
2023-06-26T01:13:38.596Z,135.000
2023-06-26T01:14:39.120Z,135.000
2023-06-26T01:15:38.708Z,90.000
2023-06-26T01:16:39.141Z,90.000
2023-06-26T01:17:39.367Z,135.000
2023-06-26T01:18:39.017Z,135.000
2023-06-26T01:19:38.405Z,90.000
2023-06-26T01:20:38.948Z,45.000
2023-06-26T01:22:39.105Z,90.000
2023-06-26T01:23:38.487Z,90.000
2023-06-26T01:24:38.848Z,90.000
2023-06-26T01:25:38.266Z,135.000
2023-06-26T01:26:38.832Z,135.000
2023-06-26T01:27:38.227Z,90.000
2023-06-26T01:28:38.680Z,90.000
2023-06-26T01:29:39.043Z,90.000
2023-06-26T01:30:38.902Z,135.000
2023-06-26T01:32:39.462Z,135.000
2023-06-26T01:33:39.062Z,90.000
2023-06-26T01:34:38.463Z,90.000
2023-06-26T01:35:38.875Z,90.000
2023-06-26T01:37:38.755Z,135.000
2023-06-26T01:38:39.233Z,90.000
2023-06-26T01:39:38.667Z,90.000
2023-06-26T01:40:39.745Z,135.000
2023-06-26T01:41:38.431Z,135.000
2023-06-26T01:42:38.786Z,135.000
2023-06-26T01:43:39.278Z,135.000
2023-06-26T01:44:38.823Z,135.000
2023-06-26T01:45:38.239Z,90.000
2023-06-26T01:46:41.419Z,90.000
2023-06-26T01:47:39.102Z,90.000
2023-06-26T01:50:38.945Z,90.000
2023-06-26T01:51:38.545Z,90.000
2023-06-26T01:52:38.960Z,135.000
2023-06-26T01:55:39.096Z,90.000
2023-06-26T01:56:38.506Z,90.000
2023-06-26T01:57:38.967Z,90.000
2023-06-26T01:58:38.412Z,90.000
2023-06-26T01:59:39.045Z,90.000
2023-06-26T02:02:38.870Z,135.000
2023-06-26T02:03:38.887Z,90.000
2023-06-26T02:04:38.673Z,90.000
2023-06-26T02:05:39.101Z,90.000
2023-06-26T02:06:39.198Z,135.000
2023-06-26T02:07:39.000Z,135.000
2023-06-26T02:08:38.496Z,135.000
2023-06-26T02:09:38.895Z,135.000
2023-06-26T02:13:38.547Z,135.000
2023-06-26T02:14:38.916Z,90.000
2023-06-26T02:15:38.319Z,135.000
2023-06-26T02:16:38.684Z,90.000
2023-06-26T02:17:39.183Z,135.000
2023-06-26T02:18:38.949Z,90.000
2023-06-26T02:19:38.515Z,90.000
2023-06-26T02:20:39.017Z,90.000
2023-06-26T02:23:38.597Z,90.000
2023-06-26T02:24:39.152Z,90.000
2023-06-26T02:25:38.588Z,90.000
2023-06-26T02:26:39.001Z,90.000
2023-06-26T02:27:38.795Z,90.000
2023-06-26T02:28:38.234Z,135.000
2023-06-26T02:29:38.684Z,90.000
2023-06-26T02:30:39.827Z,90.000
2023-06-26T02:31:39.035Z,135.000
2023-06-26T02:32:38.660Z,90.000
2023-06-26T02:34:38.748Z,90.000
2023-06-26T02:35:39.187Z,90.000
2023-06-26T02:36:38.556Z,135.000
2023-06-26T02:37:38.989Z,90.000
2023-06-26T02:38:38.497Z,90.000
2023-06-26T02:39:39.174Z,135.000
2023-06-26T02:40:39.101Z,135.000
2023-06-26T02:41:39.080Z,90.000
2023-06-26T02:42:38.496Z,135.000
2023-06-26T02:43:38.899Z,135.000
2023-06-26T02:44:38.317Z,45.000
2023-06-26T02:45:38.739Z,135.000
2023-06-26T02:46:39.266Z,90.000
2023-06-26T02:47:38.884Z,90.000
2023-06-26T02:48:38.734Z,90.000
2023-06-26T02:49:39.094Z,135.000
2023-06-26T02:52:39.071Z,135.000
2023-06-26T02:53:38.519Z,135.000
2023-06-26T02:54:38.922Z,90.000
2023-06-26T02:55:38.381Z,135.000
2023-06-26T02:56:47.064Z,90.000
2023-06-26T02:58:38.764Z,45.000
2023-06-26T02:59:39.185Z,45.000
2023-06-26T03:00:39.381Z,90.000
2023-06-26T03:01:38.555Z,0.000
2023-06-26T03:02:39.123Z,135.000
2023-06-26T03:03:39.050Z,135.000
2023-06-26T03:05:38.544Z,135.000
2023-06-26T03:06:39.072Z,135.000
2023-06-26T03:07:38.621Z,135.000
2023-06-26T03:08:39.181Z,135.000
2023-06-26T03:09:38.593Z,135.000
2023-06-26T03:10:39.657Z,135.000
2023-06-26T03:11:38.580Z,135.000
2023-06-26T03:12:38.972Z,90.000
2023-06-26T03:15:38.471Z,135.000
2023-06-26T03:16:39.027Z,180.000
2023-06-26T03:17:38.747Z,135.000
2023-06-26T03:18:38.415Z,45.000
2023-06-26T03:19:38.844Z,45.000
2023-06-26T03:20:39.611Z,90.000
2023-06-26T03:21:39.167Z,45.000
2023-06-26T03:23:38.987Z,180.000
2023-06-26T03:24:38.347Z,135.000
2023-06-26T03:25:38.754Z,135.000
2023-06-26T03:26:38.500Z,90.000
2023-06-26T03:27:38.969Z,90.000
2023-06-26T03:30:39.504Z,135.000
2023-06-26T03:31:38.555Z,135.000
2023-06-26T03:32:39.056Z,225.000
2023-06-26T03:33:38.764Z,135.000
2023-06-26T03:34:39.170Z,157.500
2023-06-26T03:36:39.107Z,135.000
2023-06-26T03:37:38.496Z,135.000
2023-06-26T03:38:38.925Z,135.000
2023-06-26T03:39:38.329Z,135.000
2023-06-26T03:40:39.420Z,135.000
2023-06-26T03:41:38.222Z,135.000
2023-06-26T03:42:38.629Z,90.000
2023-06-26T03:43:39.104Z,135.000
2023-06-26T03:44:38.484Z,135.000
2023-06-26T03:45:38.849Z,135.000
2023-06-26T03:46:38.424Z,135.000
2023-06-26T03:47:38.380Z,90.000
2023-06-26T03:48:38.966Z,90.000
2023-06-26T03:49:38.377Z,45.000
2023-06-26T03:50:39.296Z,45.000
2023-06-26T03:52:38.226Z,90.000
2023-06-26T03:53:38.630Z,90.000
2023-06-26T03:54:39.073Z,45.000
2023-06-26T03:55:38.665Z,225.000
2023-06-26T03:56:38.827Z,90.000
2023-06-26T03:57:38.281Z,135.000
2023-06-26T03:58:38.849Z,90.000
2023-06-26T03:59:38.336Z,90.000
2023-06-26T04:00:38.754Z,135.000
2023-06-26T04:01:39.381Z,135.000
2023-06-26T04:02:38.845Z,90.000
2023-06-26T04:03:38.698Z,135.000
2023-06-26T04:06:38.738Z,45.000
2023-06-26T04:07:40.393Z,90.000
2023-06-26T04:08:38.810Z,45.000
2023-06-26T04:09:39.227Z,90.000
2023-06-26T04:10:38.563Z,90.000
2023-06-26T04:11:38.971Z,45.000
2023-06-26T04:12:38.364Z,135.000
2023-06-26T04:13:38.850Z,90.000
2023-06-26T04:15:38.724Z,135.000
2023-06-26T04:18:38.663Z,135.000
2023-06-26T04:19:40.947Z,90.000
2023-06-26T04:20:38.771Z,90.000
2023-06-26T04:24:38.621Z,90.000
2023-06-26T04:25:39.677Z,90.000
2023-06-26T04:26:38.313Z,90.000
2023-06-26T04:27:42.196Z,135.000
2023-06-26T04:28:38.661Z,135.000
2023-06-26T04:29:39.096Z,90.000
2023-06-26T04:30:38.740Z,90.000
2023-06-26T04:31:39.001Z,135.000
2023-06-26T04:32:38.791Z,90.000
2023-06-26T04:33:39.528Z,180.000
2023-06-26T04:34:39.260Z,135.000
2023-06-26T04:35:38.643Z,90.000
2023-06-26T04:36:39.021Z,135.000
2023-06-26T04:37:38.393Z,135.000
2023-06-26T04:38:38.770Z,90.000
2023-06-26T04:39:39.187Z,90.000
2023-06-26T04:40:38.995Z,135.000
2023-06-26T04:41:38.535Z,90.000
2023-06-26T04:43:38.996Z,180.000
2023-06-26T04:44:38.392Z,90.000
2023-06-26T04:45:38.935Z,90.000
2023-06-26T04:46:38.614Z,135.000
2023-06-26T04:47:39.181Z,90.000
2023-06-26T04:49:41.770Z,90.000
2023-06-26T04:51:38.477Z,225.000
2023-06-26T04:52:38.996Z,90.000
2023-06-26T04:53:38.364Z,90.000
2023-06-26T04:54:38.862Z,135.000
2023-06-26T04:55:40.969Z,45.000
2023-06-26T04:58:38.636Z,135.000
2023-06-26T04:59:39.211Z,90.000
2023-06-26T05:00:39.553Z,135.000
2023-06-26T05:01:40.946Z,90.000
2023-06-26T05:02:38.820Z,180.000
2023-06-26T05:03:39.363Z,90.000
2023-06-26T05:06:38.423Z,90.000
2023-06-26T05:07:39.099Z,90.000
2023-06-26T05:08:38.474Z,135.000
2023-06-26T05:09:39.092Z,135.000
2023-06-26T05:10:38.715Z,90.000
2023-06-26T05:12:38.730Z,90.000
2023-06-26T05:13:39.171Z,90.000
2023-06-26T05:14:38.939Z,90.000
2023-06-26T05:15:38.271Z,135.000
2023-06-26T05:16:39.148Z,135.000
2023-06-26T05:17:39.351Z,90.000
2023-06-26T05:18:39.336Z,90.000
2023-06-26T05:19:39.352Z,45.000
2023-06-26T05:20:40.147Z,90.000
2023-06-26T05:21:39.430Z,90.000
2023-06-26T05:22:38.892Z,135.000
2023-06-26T05:25:38.296Z,135.000
2023-06-26T05:26:38.984Z,157.500
2023-06-26T05:27:38.417Z,90.000
2023-06-26T05:28:39.059Z,90.000
2023-06-26T05:29:41.694Z,90.000
2023-06-26T05:31:38.605Z,90.000
2023-06-26T05:32:39.325Z,90.000
2023-06-26T05:34:38.531Z,135.000
2023-06-26T05:35:39.162Z,135.000
2023-06-26T05:36:38.835Z,90.000
2023-06-26T05:37:38.258Z,90.000
2023-06-26T05:38:38.876Z,90.000
2023-06-26T05:39:38.319Z,90.000
2023-06-26T05:40:39.555Z,90.000
2023-06-26T05:41:38.271Z,90.000
2023-06-26T05:42:38.786Z,135.000
2023-06-26T05:43:38.370Z,135.000
2023-06-26T05:44:38.752Z,180.000
2023-06-26T05:45:38.296Z,90.000
2023-06-26T05:46:38.883Z,135.000
2023-06-26T05:48:38.966Z,135.000
2023-06-26T05:49:38.368Z,90.000
2023-06-26T05:50:39.170Z,90.000
2023-06-26T05:51:38.287Z,135.000
2023-06-26T05:52:39.047Z,90.000
2023-06-26T05:54:39.012Z,90.000
2023-06-26T05:55:38.384Z,135.000
2023-06-26T05:56:38.881Z,135.000
2023-06-26T05:57:38.758Z,90.000
2023-06-26T05:58:39.116Z,45.000
2023-06-26T06:01:39.060Z,135.000
2023-06-26T06:02:38.833Z,135.000
2023-06-26T06:03:38.579Z,135.000
2023-06-26T06:04:38.776Z,135.000
2023-06-26T06:05:39.231Z,135.000
2023-06-26T06:06:38.670Z,135.000
2023-06-26T06:07:39.284Z,90.000
2023-06-26T06:08:38.755Z,135.000
2023-06-26T06:09:38.346Z,180.000
2023-06-26T06:11:39.000Z,180.000
2023-06-26T06:12:38.432Z,135.000
2023-06-26T06:13:39.005Z,135.000
2023-06-26T06:14:38.430Z,135.000
2023-06-26T06:15:38.895Z,90.000
2023-06-26T06:16:38.365Z,90.000
2023-06-26T06:17:39.029Z,135.000
2023-06-26T06:18:38.651Z,135.000
2023-06-26T06:19:39.125Z,90.000
2023-06-26T06:20:38.945Z,135.000
2023-06-26T06:21:39.068Z,90.000
2023-06-26T06:22:38.444Z,135.000
2023-06-26T06:23:39.122Z,90.000
2023-06-26T06:24:38.554Z,90.000
2023-06-26T06:25:39.061Z,90.000
2023-06-26T06:26:38.409Z,90.000
2023-06-26T06:27:38.893Z,135.000
2023-06-26T06:28:38.213Z,135.000
2023-06-26T06:29:38.669Z,135.000
2023-06-26T06:30:49.193Z,135.000
2023-06-26T06:32:39.289Z,180.000
2023-06-26T06:33:38.927Z,180.000
2023-06-26T06:35:38.947Z,180.000
2023-06-26T06:36:38.338Z,90.000
2023-06-26T06:37:39.362Z,180.000
2023-06-26T06:38:38.947Z,135.000
2023-06-26T06:40:39.208Z,180.000
2023-06-26T06:41:40.423Z,135.000
2023-06-26T06:42:38.777Z,180.000
2023-06-26T06:43:38.273Z,135.000
2023-06-26T06:44:38.788Z,180.000
2023-06-26T06:47:38.518Z,135.000
2023-06-26T06:48:39.118Z,135.000
2023-06-26T06:49:38.477Z,180.000
2023-06-26T06:50:39.636Z,135.000
2023-06-26T06:51:38.449Z,135.000
2023-06-26T06:52:38.987Z,135.000
2023-06-26T06:53:38.494Z,135.000
2023-06-26T06:54:38.940Z,90.000
2023-06-26T06:57:38.387Z,135.000
2023-06-26T06:58:38.780Z,157.500
2023-06-26T06:59:38.295Z,135.000
2023-06-26T07:00:39.675Z,135.000
2023-06-26T07:01:38.390Z,225.000
2023-06-26T07:02:39.078Z,180.000
2023-06-26T07:03:39.502Z,180.000
2023-06-26T07:04:38.978Z,180.000
2023-06-26T07:07:38.781Z,135.000
2023-06-26T07:08:39.451Z,180.000
2023-06-26T07:09:38.854Z,135.000
2023-06-26T07:10:38.598Z,135.000
2023-06-26T07:11:38.553Z,135.000
2023-06-26T07:12:39.023Z,135.000
2023-06-26T07:13:38.367Z,135.000
2023-06-26T07:14:38.629Z,180.000
2023-06-26T07:15:39.378Z,180.000
2023-06-26T07:16:39.532Z,90.000
2023-06-26T07:17:39.262Z,270.000
2023-06-26T07:19:38.653Z,135.000
2023-06-26T07:20:39.677Z,135.000
2023-06-26T07:21:39.152Z,180.000
2023-06-26T07:22:38.619Z,225.000
2023-06-26T07:23:39.163Z,225.000
2023-06-26T07:24:38.725Z,180.000
2023-06-26T07:25:38.291Z,180.000
2023-06-26T07:26:50.850Z,135.000
2023-06-26T07:28:39.013Z,180.000
2023-06-26T07:29:38.412Z,135.000
2023-06-26T07:31:39.146Z,180.000
2023-06-26T07:32:39.017Z,135.000
2023-06-26T07:33:39.040Z,90.000
2023-06-26T07:34:38.456Z,225.000
2023-06-26T07:35:38.825Z,225.000
2023-06-26T07:36:39.290Z,225.000
2023-06-26T07:37:39.995Z,180.000
2023-06-26T07:38:38.484Z,157.500
2023-06-26T07:39:38.986Z,180.000
2023-06-26T07:40:38.969Z,180.000
2023-06-26T07:41:39.023Z,180.000
2023-06-26T07:42:38.497Z,180.000
2023-06-26T07:43:38.374Z,180.000
2023-06-26T07:44:38.875Z,135.000
2023-06-26T07:45:38.276Z,180.000
2023-06-26T07:46:38.869Z,135.000
2023-06-26T07:49:38.738Z,225.000
2023-06-26T07:50:40.225Z,180.000
2023-06-26T07:51:38.840Z,180.000
2023-06-26T07:52:38.386Z,90.000
2023-06-26T07:53:38.865Z,180.000
2023-06-26T07:54:38.396Z,225.000
2023-06-26T07:55:38.270Z,225.000
2023-06-26T07:56:38.887Z,225.000
2023-06-26T07:57:38.440Z,180.000
2023-06-26T07:58:40.264Z,225.000
2023-06-26T07:59:38.800Z,225.000
2023-06-26T08:01:38.658Z,225.000
2023-06-26T08:02:39.361Z,225.000
2023-06-26T08:03:42.962Z,225.000
2023-06-26T08:06:38.408Z,270.000
2023-06-26T08:07:38.933Z,225.000
2023-06-26T08:08:38.591Z,180.000
2023-06-26T08:09:39.827Z,180.000
2023-06-26T08:10:38.636Z,90.000
2023-06-26T08:11:38.624Z,90.000
2023-06-26T08:12:39.094Z,180.000
2023-06-26T08:13:38.512Z,225.000
2023-06-26T08:14:39.103Z,225.000
2023-06-26T08:15:38.550Z,225.000
2023-06-26T08:16:38.956Z,270.000
2023-06-26T08:17:38.548Z,270.000
2023-06-26T08:18:39.214Z,225.000
2023-06-26T08:19:38.671Z,270.000
2023-06-26T08:20:40.005Z,315.000
2023-06-26T08:21:38.731Z,225.000
2023-06-26T08:22:38.251Z,225.000
2023-06-26T08:23:38.675Z,135.000
2023-06-26T08:24:39.170Z,180.000
2023-06-26T08:25:38.801Z,135.000
2023-06-26T08:26:38.237Z,135.000
2023-06-26T08:28:39.187Z,135.000
2023-06-26T08:29:38.729Z,180.000
2023-06-26T08:30:39.726Z,180.000
2023-06-26T08:33:39.723Z,180.000
2023-06-26T08:34:39.811Z,180.000
2023-06-26T08:35:38.364Z,135.000
2023-06-26T08:36:39.027Z,180.000
2023-06-26T08:37:38.472Z,180.000
2023-06-26T08:38:38.825Z,180.000
2023-06-26T08:39:38.333Z,180.000
2023-06-26T08:40:39.226Z,180.000
2023-06-26T08:41:38.880Z,315.000
2023-06-26T08:42:39.510Z,270.000
2023-06-26T08:43:38.949Z,135.000
2023-06-26T08:44:56.714Z,180.000
2023-06-26T08:46:38.566Z,180.000
2023-06-26T08:47:39.211Z,180.000
2023-06-26T08:48:39.237Z,180.000
2023-06-26T08:49:38.757Z,180.000
2023-06-26T08:50:39.635Z,225.000
2023-06-26T08:51:38.786Z,180.000
2023-06-26T08:52:39.616Z,180.000
2023-06-26T08:53:39.175Z,180.000
2023-06-26T08:54:38.700Z,180.000
2023-06-26T08:55:39.294Z,180.000
2023-06-26T08:56:38.877Z,135.000
2023-06-26T08:57:38.509Z,180.000
2023-06-26T08:58:40.416Z,90.000
2023-06-26T08:59:38.394Z,135.000
2023-06-26T09:00:39.276Z,90.000
2023-06-26T09:01:38.598Z,135.000
2023-06-26T09:02:38.847Z,180.000
2023-06-26T09:03:38.649Z,180.000
2023-06-26T09:04:38.834Z,180.000
2023-06-26T09:05:38.289Z,180.000
2023-06-26T09:06:38.493Z,135.000
2023-06-26T09:07:38.967Z,225.000
2023-06-26T09:08:39.172Z,225.000
2023-06-26T09:09:38.612Z,135.000
2023-06-26T09:10:39.793Z,135.000
2023-06-26T09:11:38.930Z,225.000
2023-06-26T09:12:38.393Z,180.000
2023-06-26T09:13:38.951Z,225.000
2023-06-26T09:15:39.503Z,225.000
2023-06-26T09:16:38.442Z,135.000
2023-06-26T09:17:39.294Z,0.000
2023-06-26T09:18:39.001Z,0.000
2023-06-26T09:20:39.231Z,180.000
2023-06-26T09:21:39.075Z,225.000
2023-06-26T09:22:38.918Z,180.000
2023-06-26T09:23:38.403Z,180.000
2023-06-26T09:24:38.907Z,135.000
2023-06-26T09:25:40.062Z,225.000
2023-06-26T09:26:39.076Z,180.000
2023-06-26T09:27:38.594Z,270.000
2023-06-26T09:28:38.793Z,180.000
2023-06-26T09:29:38.248Z,180.000
2023-06-26T09:30:38.983Z,90.000
2023-06-26T09:31:45.892Z,90.000
2023-06-26T09:33:38.763Z,225.000
2023-06-26T09:34:39.204Z,0.000
2023-06-26T09:35:38.687Z,180.000
2023-06-26T09:36:42.998Z,135.000
2023-06-26T09:37:38.459Z,225.000
2023-06-26T09:38:38.831Z,135.000
2023-06-26T09:39:39.214Z,270.000
2023-06-26T09:40:39.059Z,135.000
2023-06-26T09:41:38.685Z,180.000
2023-06-26T09:42:39.131Z,180.000
2023-06-26T09:43:39.814Z,180.000
2023-06-26T09:44:38.277Z,135.000
2023-06-26T09:45:38.556Z,135.000
2023-06-26T09:46:38.504Z,270.000
2023-06-26T09:47:39.025Z,315.000
2023-06-26T09:48:38.636Z,270.000
2023-06-26T09:49:38.963Z,315.000
2023-06-26T09:50:38.669Z,270.000
2023-06-26T09:51:39.524Z,45.000
2023-06-26T09:53:39.231Z,270.000
2023-06-26T09:54:38.803Z,0.000
2023-06-26T09:55:38.358Z,0.000
2023-06-26T09:56:38.383Z,45.000
2023-06-26T09:57:38.648Z,270.000
2023-06-26T09:58:38.362Z,315.000
2023-06-26T09:59:38.854Z,45.000
2023-06-26T10:00:39.782Z,0.000
2023-06-26T10:01:39.689Z,270.000
2023-06-26T10:02:38.899Z,270.000
2023-06-26T10:03:39.478Z,315.000
2023-06-26T10:04:38.758Z,315.000
2023-06-26T10:06:39.204Z,270.000
2023-06-26T10:07:38.960Z,315.000
2023-06-26T10:08:38.440Z,315.000
2023-06-26T10:09:38.879Z,225.000
2023-06-26T10:10:38.643Z,270.000
2023-06-26T10:11:38.835Z,315.000
2023-06-26T10:12:39.288Z,315.000
2023-06-26T10:13:38.854Z,270.000
2023-06-26T10:14:38.407Z,315.000
2023-06-26T10:15:38.753Z,315.000
2023-06-26T10:16:38.500Z,315.000
2023-06-26T10:17:38.714Z,90.000
2023-06-26T10:18:38.378Z,315.000
2023-06-26T10:19:39.009Z,315.000
2023-06-26T10:20:38.919Z,270.000
2023-06-26T10:21:39.350Z,315.000
2023-06-26T10:22:38.745Z,0.000
2023-06-26T10:23:39.324Z,315.000
2023-06-26T10:24:40.391Z,0.000
2023-06-26T10:25:39.077Z,270.000
2023-06-26T10:28:38.605Z,180.000
2023-06-26T10:29:38.893Z,225.000
2023-06-26T10:30:38.477Z,270.000
2023-06-26T10:31:38.964Z,45.000
2023-06-26T10:32:38.571Z,225.000
2023-06-26T10:33:38.417Z,270.000
2023-06-26T10:34:38.880Z,225.000
2023-06-26T10:37:39.139Z,225.000
2023-06-26T10:38:38.708Z,180.000
2023-06-26T10:39:38.927Z,180.000
2023-06-26T10:40:38.755Z,225.000
2023-06-26T10:41:40.574Z,225.000
2023-06-26T10:42:38.413Z,225.000
2023-06-26T10:43:38.932Z,180.000
2023-06-26T10:44:38.468Z,180.000
2023-06-26T10:45:38.983Z,180.000
2023-06-26T10:46:38.542Z,180.000
2023-06-26T10:47:39.123Z,180.000
2023-06-26T10:48:38.736Z,180.000
2023-06-26T10:49:39.123Z,225.000
2023-06-26T10:50:38.801Z,270.000
2023-06-26T10:51:39.174Z,270.000
2023-06-26T10:52:38.609Z,225.000
2023-06-26T10:53:39.255Z,270.000
2023-06-26T10:54:38.780Z,270.000
2023-06-26T10:55:38.315Z,270.000
2023-06-26T10:56:39.012Z,225.000
2023-06-26T10:57:38.628Z,270.000
2023-06-26T10:58:39.115Z,315.000
2023-06-26T10:59:39.200Z,270.000
2023-06-26T11:00:39.065Z,225.000
2023-06-26T11:01:39.351Z,270.000
2023-06-26T11:03:38.996Z,337.500
2023-06-26T11:04:38.656Z,315.000
2023-06-26T11:05:38.534Z,270.000
2023-06-26T11:06:38.944Z,225.000
2023-06-26T11:07:38.444Z,90.000
2023-06-26T11:08:38.990Z,270.000
2023-06-26T11:09:38.620Z,270.000
2023-06-26T11:10:39.832Z,270.000
2023-06-26T11:11:38.401Z,315.000
2023-06-26T11:12:38.983Z,315.000
2023-06-26T11:13:38.595Z,315.000
2023-06-26T11:14:39.090Z,315.000
2023-06-26T11:15:38.696Z,315.000
2023-06-26T11:18:38.913Z,270.000
2023-06-26T11:19:38.454Z,270.000
2023-06-26T11:20:39.578Z,315.000
2023-06-26T11:21:39.255Z,270.000
2023-06-26T11:22:38.686Z,315.000
2023-06-26T11:23:39.285Z,270.000
2023-06-26T11:24:38.710Z,315.000
2023-06-26T11:25:42.567Z,270.000
2023-06-26T11:27:38.399Z,180.000
2023-06-26T11:28:38.789Z,270.000
2023-06-26T11:29:39.196Z,270.000
2023-06-26T11:30:39.079Z,270.000
2023-06-26T11:31:39.378Z,225.000
2023-06-26T11:32:39.017Z,270.000
2023-06-26T11:33:38.801Z,135.000
2023-06-26T11:35:38.767Z,225.000
2023-06-26T11:36:39.249Z,225.000
2023-06-26T11:37:38.699Z,315.000
2023-06-26T11:38:38.235Z,270.000
2023-06-26T11:39:38.667Z,225.000
2023-06-26T11:40:39.787Z,270.000
2023-06-26T11:42:38.335Z,315.000
2023-06-26T11:43:38.971Z,270.000
2023-06-26T11:44:38.359Z,270.000
2023-06-26T11:45:38.956Z,270.000
2023-06-26T11:47:38.974Z,270.000
2023-06-26T11:48:39.489Z,315.000
2023-06-26T11:49:38.564Z,225.000
2023-06-26T11:50:40.600Z,315.000
2023-06-26T11:51:38.475Z,270.000
2023-06-26T11:52:38.900Z,270.000
2023-06-26T11:53:38.317Z,247.500
2023-06-26T11:54:38.719Z,270.000
2023-06-26T11:55:38.409Z,270.000
2023-06-26T11:56:39.016Z,0.000
2023-06-26T11:57:38.420Z,225.000
2023-06-26T11:58:39.049Z,225.000
2023-06-26T11:59:38.566Z,315.000
2023-06-26T12:00:39.568Z,270.000
2023-06-26T12:01:38.258Z,270.000
2023-06-26T12:02:39.069Z,225.000
2023-06-26T12:03:38.688Z,270.000
2023-06-26T12:04:39.498Z,270.000
2023-06-26T12:06:38.491Z,270.000
2023-06-26T12:07:39.387Z,225.000
2023-06-26T12:08:38.973Z,247.500
2023-06-26T12:09:38.407Z,225.000
2023-06-26T12:10:39.300Z,225.000
2023-06-26T12:11:39.388Z,225.000
2023-06-26T12:12:38.828Z,180.000
2023-06-26T12:13:38.384Z,0.000
2023-06-26T12:14:39.064Z,270.000
2023-06-26T12:17:38.748Z,270.000
2023-06-26T12:18:38.724Z,247.500
2023-06-26T12:19:39.235Z,270.000
2023-06-26T12:20:38.936Z,225.000
2023-06-26T12:23:38.626Z,270.000
2023-06-26T12:24:38.209Z,315.000
2023-06-26T12:25:38.697Z,225.000
2023-06-26T12:26:39.196Z,225.000
2023-06-26T12:27:38.724Z,225.000
2023-06-26T12:28:38.241Z,225.000
2023-06-26T12:29:38.698Z,225.000
2023-06-26T12:30:38.973Z,180.000
2023-06-26T12:31:38.879Z,180.000
2023-06-26T12:32:38.573Z,225.000
2023-06-26T12:33:38.394Z,180.000
2023-06-26T12:34:38.929Z,225.000
2023-06-26T12:35:39.023Z,225.000
2023-06-26T12:36:38.577Z,225.000
2023-06-26T12:37:38.972Z,270.000
2023-06-26T12:38:38.457Z,225.000
2023-06-26T12:39:38.909Z,225.000
2023-06-26T12:40:38.730Z,225.000
2023-06-26T12:41:38.930Z,135.000
2023-06-26T12:42:38.384Z,270.000
2023-06-26T12:43:38.927Z,315.000
2023-06-26T12:44:38.318Z,270.000
2023-06-26T12:45:40.010Z,270.000
2023-06-26T12:46:39.244Z,270.000
2023-06-26T12:47:39.156Z,225.000
2023-06-26T12:48:38.775Z,225.000
2023-06-26T12:49:39.431Z,270.000
2023-06-26T12:51:38.800Z,225.000
2023-06-26T12:54:38.589Z,225.000
2023-06-26T12:55:39.138Z,0.000
2023-06-26T12:56:38.632Z,270.000
2023-06-26T12:57:39.114Z,292.500
2023-06-26T12:58:38.637Z,270.000
2023-06-26T12:59:38.387Z,315.000
2023-06-26T13:00:39.248Z,225.000
2023-06-26T13:01:38.639Z,270.000
2023-06-26T13:02:38.554Z,315.000
2023-06-26T13:03:40.557Z,270.000
2023-06-26T13:04:38.780Z,315.000
2023-06-26T13:05:39.300Z,45.000
2023-06-26T13:06:38.736Z,270.000
2023-06-26T13:07:38.328Z,270.000
2023-06-26T13:08:38.793Z,225.000
2023-06-26T13:09:39.249Z,270.000
2023-06-26T13:10:39.515Z,270.000
2023-06-26T13:12:38.632Z,225.000
2023-06-26T13:13:39.034Z,225.000
2023-06-26T13:14:38.525Z,90.000
2023-06-26T13:15:38.282Z,180.000
2023-06-26T13:16:38.945Z,247.500
2023-06-26T13:17:38.667Z,225.000
2023-06-26T13:18:38.369Z,225.000
2023-06-26T13:19:38.855Z,225.000
2023-06-26T13:20:38.564Z,225.000
2023-06-26T13:21:38.585Z,180.000
2023-06-26T13:22:39.081Z,225.000
2023-06-26T13:23:38.552Z,180.000
2023-06-26T13:24:39.017Z,225.000
2023-06-26T13:25:38.451Z,225.000
2023-06-26T13:26:43.827Z,225.000
2023-06-26T13:28:38.675Z,180.000
2023-06-26T13:29:39.179Z,315.000
2023-06-26T13:30:38.958Z,270.000
2023-06-26T13:31:39.597Z,225.000
2023-06-26T13:32:38.585Z,225.000
2023-06-26T13:33:39.166Z,315.000
2023-06-26T13:34:38.566Z,225.000
2023-06-26T13:35:38.985Z,270.000
2023-06-26T13:38:38.618Z,270.000
2023-06-26T13:39:39.151Z,270.000
2023-06-26T13:40:38.758Z,315.000
2023-06-26T13:41:38.420Z,180.000
2023-06-26T13:42:40.118Z,270.000
2023-06-26T13:43:39.073Z,180.000
2023-06-26T13:44:52.383Z,270.000
2023-06-26T13:45:38.756Z,270.000
2023-06-26T13:46:39.292Z,225.000
2023-06-26T13:47:39.093Z,270.000
2023-06-26T13:48:38.934Z,270.000
2023-06-26T13:50:54.290Z,270.000
2023-06-26T13:52:39.229Z,315.000
2023-06-26T13:53:38.728Z,315.000
2023-06-26T13:54:38.258Z,270.000
2023-06-26T13:55:38.740Z,315.000
2023-06-26T13:56:38.304Z,270.000
2023-06-26T13:57:38.806Z,270.000
2023-06-26T13:58:38.237Z,315.000
2023-06-26T13:59:38.760Z,270.000
2023-06-26T14:00:39.460Z,315.000
2023-06-26T14:01:38.989Z,315.000
2023-06-26T14:02:39.047Z,270.000
2023-06-26T14:03:39.978Z,315.000
2023-06-26T14:04:38.609Z,225.000
2023-06-26T14:05:45.041Z,225.000
2023-06-26T14:07:39.323Z,225.000
2023-06-26T14:08:38.929Z,180.000